CYHZ

Halifax / Stanfield International Airport

Halifax, Nova Scotia, Canada
METAR CYHZ 251400Z 13005KT 100V160 15SM FEW045 BKN300 11/M01 A3070 RMK CU1CI7 CU TR SLP403
Observed Flight Rules
Sep-25 @ 14:00 UTC (an hour ago) Visual Flight Rules
Wind Visibility Clouds
130° at 5 knots 15 miles
  • Few at 4,500' AGL
  • Broken at 30,000' AGL
Temperatures Readings
Current 11°C / 52°F
Dewpoint -1°C / 30°F
Humidity 44%
Altimeter 30.7" Hg
Pressure 1040.3 hPa
Elevation 145
METAR CYHZ 251400Z 13005KT 100V160 15SM FEW045 BKN300 11/M01 A3070 RMK CU1CI7 CU TR SLP403
Observed Flight Rules
Sep-25 @ 14:00 UTC
(an hour ago)
VFR
Wind Visibility
130° at 5 knots 15 miles
Clouds
  • Few at 4,500' AGL
  • Broken at 30,000' AGL
Temperature Dewpoint
11°C / 52°F -1°C / 30°F
Humidity Altimeter Pressure
44% 30.7" Hg 1040.3 hPa